createdAt,value
2018-12-06T00:00:18.550Z,2.18
2018-12-06T00:02:49.369Z,2.15
2018-12-06T00:05:20.225Z,2.14
2018-12-06T00:07:59.085Z,2.14
2018-12-06T00:10:29.936Z,2.22
2018-12-06T00:13:00.750Z,2.24
2018-12-06T00:15:31.597Z,2.28
2018-12-06T00:21:13.524Z,2.30
2018-12-06T00:23:44.391Z,2.31
2018-12-06T00:26:15.209Z,2.28
2018-12-06T00:28:46.031Z,2.28
2018-12-06T00:31:16.892Z,2.35
2018-12-06T00:33:47.691Z,2.37
2018-12-06T00:36:18.628Z,2.31
2018-12-06T00:38:49.457Z,2.33
2018-12-06T00:41:20.474Z,2.36
2018-12-06T00:43:51.384Z,2.39
2018-12-06T00:46:22.262Z,2.36
2018-12-06T00:48:53.108Z,2.30
2018-12-06T00:51:23.993Z,2.35
2018-12-06T00:53:54.839Z,2.33
2018-12-06T00:56:25.632Z,2.32
2018-12-06T00:58:56.417Z,2.25
2018-12-06T01:01:27.226Z,2.32
2018-12-06T01:07:01.712Z,2.32
2018-12-06T01:09:32.652Z,2.26
2018-12-06T01:12:03.607Z,2.26
2018-12-06T01:14:51.000Z,2.23
2018-12-06T01:17:21.793Z,2.23
2018-12-06T01:19:52.613Z,2.21
2018-12-06T01:22:23.411Z,2.22
2018-12-06T01:24:54.238Z,2.18
2018-12-06T01:27:25.013Z,2.24
2018-12-06T01:29:55.930Z,2.27
2018-12-06T01:32:26.743Z,2.11
2018-12-06T01:34:57.667Z,2.06
2018-12-06T01:37:28.581Z,2.06
2018-12-06T01:39:59.480Z,2.08
2018-12-06T01:42:30.325Z,2.07
2018-12-06T01:45:01.151Z,2.16
2018-12-06T01:47:32.030Z,2.11
2018-12-06T01:50:04.695Z,2.14
2018-12-06T01:52:35.522Z,2.26
2018-12-06T01:55:06.424Z,2.28
2018-12-06T01:57:37.266Z,2.26
2018-12-06T02:00:08.320Z,2.19
2018-12-06T02:02:39.212Z,2.15
2018-12-06T02:05:10.062Z,1.87
2018-12-06T02:07:40.896Z,2.26
2018-12-06T02:10:11.839Z,2.17
2018-12-06T02:12:42.646Z,2.24
2018-12-06T02:15:13.628Z,2.30
2018-12-06T02:17:44.625Z,2.34
2018-12-06T02:20:15.481Z,2.33
2018-12-06T02:22:46.347Z,2.26
2018-12-06T02:25:17.178Z,2.24
2018-12-06T02:27:48.000Z,2.26
2018-12-06T02:30:18.845Z,2.31
2018-12-06T02:32:49.771Z,2.33
2018-12-06T02:35:20.752Z,2.33
2018-12-06T02:37:51.599Z,2.31
2018-12-06T02:40:22.441Z,2.27
2018-12-06T02:42:53.292Z,2.24
2018-12-06T02:45:24.172Z,2.23
2018-12-06T02:47:54.994Z,2.34
2018-12-06T02:50:25.921Z,2.30
2018-12-06T02:52:56.817Z,2.30
2018-12-06T02:55:28.021Z,2.38
2018-12-06T02:57:58.834Z,2.32
2018-12-06T03:00:29.664Z,2.26
2018-12-06T03:03:01.506Z,2.31
2018-12-06T03:05:32.317Z,2.22
2018-12-06T03:08:03.145Z,2.27
2018-12-06T03:10:34.000Z,2.20
2018-12-06T03:13:04.836Z,2.24
2018-12-06T03:15:35.805Z,2.22
2018-12-06T03:18:06.653Z,2.32
2018-12-06T03:20:37.506Z,2.29
2018-12-06T03:23:08.402Z,2.32
2018-12-06T03:25:39.280Z,2.33
2018-12-06T03:28:10.058Z,2.40
2018-12-06T03:30:40.968Z,2.35
2018-12-06T03:33:11.809Z,2.35
2018-12-06T03:35:42.599Z,2.39
2018-12-06T03:38:13.390Z,2.40
2018-12-06T03:40:44.244Z,2.36
2018-12-06T03:43:15.069Z,2.35
2018-12-06T03:45:45.915Z,2.38
2018-12-06T03:48:16.745Z,2.42
2018-12-06T03:50:47.547Z,2.49
2018-12-06T03:53:18.433Z,2.41
2018-12-06T03:55:49.258Z,2.50
2018-12-06T03:58:20.143Z,2.44
2018-12-06T04:00:51.028Z,2.45
2018-12-06T04:03:21.848Z,2.43
2018-12-06T04:05:52.653Z,2.51
2018-12-06T04:08:23.609Z,2.47
2018-12-06T04:10:54.500Z,2.43
2018-12-06T04:13:25.337Z,2.43
2018-12-06T04:15:56.196Z,2.43
2018-12-06T04:18:27.040Z,2.41
2018-12-06T04:20:57.869Z,2.42
2018-12-06T04:23:28.689Z,2.41
2018-12-06T04:25:59.495Z,2.38
2018-12-06T04:28:30.327Z,2.36
2018-12-06T04:31:01.197Z,2.39
2018-12-06T04:33:31.991Z,2.35
2018-12-06T04:36:02.898Z,2.27
2018-12-06T04:38:33.721Z,2.23
2018-12-06T04:41:04.566Z,2.12
2018-12-06T04:43:35.352Z,2.06
2018-12-06T04:46:06.224Z,2.02
2018-12-06T04:48:37.050Z,1.98
2018-12-06T04:51:07.974Z,1.99
2018-12-06T04:53:38.843Z,1.98
2018-12-06T04:56:09.694Z,1.95
2018-12-06T04:58:40.602Z,1.91
2018-12-06T05:01:11.549Z,1.97
2018-12-06T05:03:42.402Z,1.93
2018-12-06T05:06:13.249Z,1.93
2018-12-06T05:08:44.046Z,1.93
2018-12-06T05:11:14.993Z,1.85
2018-12-06T05:13:45.866Z,1.83
2018-12-06T05:16:17.756Z,1.88
2018-12-06T05:18:48.617Z,1.90
2018-12-06T05:21:19.447Z,1.92
2018-12-06T05:23:50.299Z,1.97
2018-12-06T05:26:21.190Z,1.91
2018-12-06T05:28:52.054Z,1.88
2018-12-06T05:31:22.928Z,1.87
2018-12-06T05:33:53.883Z,1.85
2018-12-06T05:36:24.787Z,1.95
2018-12-06T05:38:55.673Z,1.95
2018-12-06T05:41:26.547Z,1.93
2018-12-06T05:43:57.446Z,1.88
2018-12-06T05:46:28.697Z,1.87
2018-12-06T05:49:06.775Z,1.87
2018-12-06T05:51:37.654Z,1.83
2018-12-06T05:54:08.562Z,1.88
2018-12-06T05:56:39.399Z,1.88
2018-12-06T05:59:10.211Z,1.84
2018-12-06T06:01:41.402Z,1.83
2018-12-06T06:04:12.252Z,1.80
2018-12-06T06:06:43.150Z,1.86
2018-12-06T06:09:14.145Z,1.83
2018-12-06T06:11:45.025Z,1.82
2018-12-06T06:14:15.970Z,1.89
2018-12-06T06:16:46.792Z,1.87
2018-12-06T06:19:17.638Z,1.85
2018-12-06T06:21:48.487Z,1.92
2018-12-06T06:24:19.528Z,1.92
2018-12-06T06:26:50.378Z,1.94
2018-12-06T06:29:21.317Z,1.91
2018-12-06T06:31:52.297Z,1.95
2018-12-06T06:34:23.959Z,2.00
2018-12-06T06:36:54.848Z,1.92
2018-12-06T06:39:25.753Z,1.92
2018-12-06T06:41:57.097Z,1.94
2018-12-06T06:44:27.963Z,2.02
2018-12-06T06:46:59.008Z,2.01
2018-12-06T06:49:30.001Z,2.07
2018-12-06T06:52:00.919Z,2.02
2018-12-06T06:54:31.832Z,2.05
2018-12-06T06:57:02.773Z,2.03
2018-12-06T06:59:33.732Z,2.02
2018-12-06T07:02:06.002Z,2.06
2018-12-06T07:04:36.940Z,2.07
2018-12-06T07:07:08.022Z,2.05
2018-12-06T07:09:38.864Z,2.05
2018-12-06T07:12:09.734Z,2.18
2018-12-06T07:14:40.566Z,2.11
2018-12-06T07:17:11.451Z,2.19
2018-12-06T07:19:42.309Z,2.21
2018-12-06T07:22:13.277Z,2.19
2018-12-06T07:24:44.200Z,2.27
2018-12-06T07:27:15.198Z,2.34
2018-12-06T07:29:46.035Z,2.39
2018-12-06T07:32:16.899Z,2.41
2018-12-06T07:34:47.725Z,2.37
2018-12-06T07:37:18.608Z,2.45
2018-12-06T07:39:49.550Z,2.48
2018-12-06T07:42:20.449Z,2.40
2018-12-06T07:44:51.383Z,2.44
2018-12-06T07:47:22.229Z,2.39
2018-12-06T07:53:01.509Z,2.44
2018-12-06T07:55:32.309Z,2.48
2018-12-06T07:58:03.226Z,2.48
2018-12-06T08:00:34.093Z,2.46
2018-12-06T08:03:04.964Z,2.61
2018-12-06T08:05:35.779Z,2.76
2018-12-06T08:08:06.747Z,2.73
2018-12-06T08:10:37.614Z,2.71
2018-12-06T08:13:08.471Z,2.71
2018-12-06T08:15:39.393Z,2.72
2018-12-06T08:18:10.355Z,2.82
2018-12-06T08:20:41.277Z,2.86
2018-12-06T08:23:13.177Z,2.94
2018-12-06T08:25:43.969Z,2.99
2018-12-06T08:28:18.171Z,2.98
2018-12-06T08:30:49.164Z,2.90
2018-12-06T08:33:20.093Z,2.94
2018-12-06T08:35:50.976Z,2.90
2018-12-06T08:38:21.830Z,2.86
2018-12-06T08:40:53.762Z,2.84
2018-12-06T08:43:24.736Z,2.81
2018-12-06T08:45:56.595Z,2.92
2018-12-06T08:48:27.553Z,2.99
2018-12-06T08:50:58.388Z,2.98
2018-12-06T08:53:29.342Z,2.95
2018-12-06T08:56:00.249Z,2.97
2018-12-06T08:58:31.099Z,3.01
2018-12-06T09:01:01.926Z,3.05
2018-12-06T09:03:32.814Z,3.00
2018-12-06T09:06:07.757Z,2.88
2018-12-06T09:08:44.956Z,2.96
2018-12-06T09:11:19.396Z,2.95
2018-12-06T09:13:52.360Z,2.98
2018-12-06T09:16:27.044Z,3.08
2018-12-06T09:18:57.907Z,3.10
2018-12-06T09:21:28.783Z,3.17
2018-12-06T09:24:12.605Z,3.31
2018-12-06T09:26:43.699Z,3.17
2018-12-06T09:29:14.627Z,3.28
2018-12-06T09:31:45.500Z,3.50
2018-12-06T09:34:16.333Z,3.66
2018-12-06T09:36:47.232Z,3.80
2018-12-06T09:39:18.135Z,4.06
2018-12-06T09:41:49.002Z,4.03
2018-12-06T09:44:19.993Z,4.21
2018-12-06T09:46:50.801Z,4.09
2018-12-06T09:49:21.647Z,4.11
2018-12-06T09:51:52.520Z,4.41
2018-12-06T09:54:23.353Z,4.24
2018-12-06T09:56:54.189Z,4.23
2018-12-06T09:59:25.039Z,4.34
2018-12-06T10:01:55.838Z,4.28
2018-12-06T10:04:26.808Z,4.48
2018-12-06T10:06:57.716Z,4.75
2018-12-06T10:09:28.615Z,4.75
2018-12-06T10:11:59.489Z,5.01
2018-12-06T10:14:30.369Z,5.15
2018-12-06T10:17:01.159Z,5.15
2018-12-06T10:19:32.078Z,5.13
2018-12-06T10:22:02.861Z,4.99
2018-12-06T10:27:11.199Z,4.82
2018-12-06T10:29:42.071Z,4.73
2018-12-06T10:32:12.830Z,4.75
2018-12-06T10:34:45.341Z,4.81
2018-12-06T10:37:16.531Z,4.82
2018-12-06T10:39:47.343Z,4.71
2018-12-06T10:42:18.132Z,4.55
2018-12-06T10:44:48.964Z,4.52
2018-12-06T10:47:19.779Z,4.80
2018-12-06T10:49:50.595Z,4.85
2018-12-06T10:52:21.402Z,4.81
2018-12-06T10:54:52.208Z,4.50
2018-12-06T10:57:23.142Z,4.61
2018-12-06T10:59:53.978Z,4.46
2018-12-06T11:02:27.621Z,4.42
2018-12-06T11:04:58.475Z,4.58
2018-12-06T11:07:29.286Z,4.68
2018-12-06T11:10:00.170Z,4.25
2018-12-06T11:12:30.963Z,4.69
2018-12-06T11:15:01.882Z,4.58
2018-12-06T11:17:32.646Z,4.46
2018-12-06T11:20:04.189Z,4.50
2018-12-06T11:25:37.666Z,4.69
2018-12-06T11:28:09.069Z,4.91
2018-12-06T11:30:40.191Z,4.64
2018-12-06T11:33:11.027Z,4.68
2018-12-06T11:35:41.857Z,4.51
2018-12-06T11:38:12.610Z,4.52
2018-12-06T11:40:43.422Z,4.55
2018-12-06T11:43:14.222Z,4.60
2018-12-06T11:45:45.077Z,4.61
2018-12-06T11:48:15.887Z,4.48
2018-12-06T11:50:46.697Z,4.71
2018-12-06T11:53:19.268Z,4.79
2018-12-06T11:55:50.259Z,4.73
2018-12-06T11:58:21.144Z,5.02
2018-12-06T12:00:53.040Z,5.12
2018-12-06T12:03:23.871Z,4.97
2018-12-06T12:05:58.542Z,4.78
2018-12-06T12:08:29.572Z,5.04
2018-12-06T12:11:00.382Z,5.00
2018-12-06T12:13:31.201Z,4.94
2018-12-06T12:16:02.231Z,5.23
2018-12-06T12:18:33.060Z,5.42
2018-12-06T12:21:03.883Z,5.59
2018-12-06T12:23:34.687Z,5.51
2018-12-06T12:26:05.514Z,5.34
2018-12-06T12:28:36.312Z,5.44
2018-12-06T12:31:07.105Z,5.49
2018-12-06T12:33:45.007Z,5.57
2018-12-06T12:36:15.783Z,5.57
2018-12-06T12:38:46.609Z,5.62
2018-12-06T12:41:17.459Z,5.53
2018-12-06T12:43:48.462Z,5.47
2018-12-06T12:46:19.243Z,5.35
2018-12-06T12:48:50.046Z,5.33
2018-12-06T12:51:20.894Z,5.34
2018-12-06T12:53:51.697Z,5.42
2018-12-06T12:56:22.478Z,5.48
2018-12-06T12:58:53.300Z,5.47
2018-12-06T13:01:24.140Z,5.48
2018-12-06T13:03:54.913Z,5.39
2018-12-06T13:06:26.119Z,5.43
2018-12-06T13:08:56.934Z,5.38
2018-12-06T13:11:27.780Z,5.35
2018-12-06T13:13:58.559Z,5.18
2018-12-06T13:16:29.418Z,5.12
2018-12-06T13:19:00.232Z,5.19
2018-12-06T13:21:31.062Z,5.14
2018-12-06T13:24:02.071Z,5.11
2018-12-06T13:26:32.918Z,5.13
2018-12-06T13:29:03.752Z,5.16
2018-12-06T13:31:34.671Z,5.14
2018-12-06T13:34:05.597Z,5.11
2018-12-06T13:36:36.414Z,5.15
2018-12-06T13:39:07.448Z,5.14
2018-12-06T13:41:38.279Z,5.22
2018-12-06T13:44:09.059Z,5.32
2018-12-06T13:46:39.866Z,5.25
2018-12-06T13:49:10.690Z,5.33
2018-12-06T13:51:41.494Z,5.29
2018-12-06T13:54:12.347Z,5.22
2018-12-06T13:56:43.208Z,5.30
2018-12-06T13:59:13.991Z,5.31
2018-12-06T14:01:44.897Z,5.27
2018-12-06T14:04:15.796Z,5.26
2018-12-06T14:06:46.774Z,5.33
2018-12-06T14:09:21.659Z,5.32
2018-12-06T14:11:52.724Z,5.36
2018-12-06T14:14:23.591Z,5.35
2018-12-06T14:16:54.386Z,5.25
2018-12-06T14:19:25.178Z,5.24
2018-12-06T14:21:56.123Z,5.18
2018-12-06T14:24:26.891Z,5.11
2018-12-06T14:26:57.890Z,5.08
2018-12-06T14:29:28.687Z,5.05
2018-12-06T14:31:59.597Z,5.10
2018-12-06T14:34:30.434Z,5.12
2018-12-06T14:37:02.102Z,5.11
2018-12-06T14:39:33.315Z,5.13
2018-12-06T14:42:04.182Z,5.10
2018-12-06T14:44:34.998Z,5.04
2018-12-06T14:47:05.868Z,5.00
2018-12-06T14:49:36.719Z,4.88
2018-12-06T14:52:07.613Z,4.84
2018-12-06T14:54:39.034Z,4.81
2018-12-06T14:57:09.853Z,4.77
2018-12-06T14:59:40.656Z,4.76
2018-12-06T15:02:12.084Z,4.73
2018-12-06T15:04:43.009Z,4.67
2018-12-06T15:07:13.880Z,4.71
2018-12-06T15:09:44.749Z,4.74
2018-12-06T15:12:15.581Z,4.76
2018-12-06T15:14:46.536Z,4.74
2018-12-06T15:17:24.382Z,4.78
2018-12-06T15:19:55.187Z,4.76
2018-12-06T15:22:25.981Z,4.81
2018-12-06T15:24:57.121Z,4.82
2018-12-06T15:27:28.256Z,4.79
2018-12-06T15:29:59.318Z,4.88
2018-12-06T15:32:30.158Z,4.88
2018-12-06T15:35:02.364Z,4.85
2018-12-06T15:37:33.228Z,4.81
2018-12-06T15:40:05.859Z,4.77
2018-12-06T15:42:36.790Z,4.80
2018-12-06T15:45:07.647Z,4.81
2018-12-06T15:47:39.384Z,4.72
2018-12-06T15:50:10.353Z,4.70
2018-12-06T15:52:42.686Z,4.80
2018-12-06T15:55:13.617Z,4.78
2018-12-06T15:57:47.565Z,4.78
2018-12-06T16:00:21.374Z,4.80
2018-12-06T16:02:52.211Z,4.80
2018-12-06T16:05:23.115Z,4.73
2018-12-06T16:07:55.967Z,4.65
2018-12-06T16:10:27.027Z,4.66
2018-12-06T16:12:57.826Z,4.63
2018-12-06T16:15:29.790Z,4.63
2018-12-06T16:18:00.618Z,4.54
2018-12-06T16:20:31.496Z,4.62
2018-12-06T16:23:02.347Z,4.58
2018-12-06T16:25:33.174Z,4.65
2018-12-06T16:28:05.242Z,4.59
2018-12-06T16:30:39.439Z,4.52
2018-12-06T16:33:10.476Z,4.55
2018-12-06T16:35:42.401Z,4.57
2018-12-06T16:38:13.446Z,4.54
2018-12-06T16:40:44.278Z,4.55
2018-12-06T16:43:15.162Z,4.57
2018-12-06T16:45:46.020Z,4.62
2018-12-06T16:48:16.979Z,4.63
2018-12-06T16:50:47.890Z,4.61
2018-12-06T16:53:18.725Z,4.66
2018-12-06T16:55:49.585Z,4.71
2018-12-06T16:58:20.530Z,4.65
2018-12-06T17:00:51.408Z,4.62
2018-12-06T17:03:22.218Z,4.65
2018-12-06T17:05:53.081Z,4.66
2018-12-06T17:08:23.908Z,4.65
2018-12-06T17:10:54.688Z,4.63
2018-12-06T17:13:25.534Z,4.58
2018-12-06T17:15:56.400Z,4.64
2018-12-06T17:18:27.219Z,4.65
2018-12-06T17:20:58.176Z,4.53
2018-12-06T17:23:30.017Z,4.58
2018-12-06T17:26:01.068Z,4.56
2018-12-06T17:28:31.907Z,4.57
2018-12-06T17:31:02.849Z,4.60
2018-12-06T17:33:33.674Z,4.61
2018-12-06T17:36:04.434Z,4.66
2018-12-06T17:38:35.281Z,4.69
2018-12-06T17:41:06.078Z,4.75
2018-12-06T17:43:36.928Z,4.68
2018-12-06T17:46:07.750Z,4.44
2018-12-06T17:48:38.671Z,4.70
2018-12-06T17:51:09.468Z,4.61
2018-12-06T17:53:40.370Z,4.59
2018-12-06T17:56:11.202Z,4.58
2018-12-06T17:58:42.026Z,4.61
2018-12-06T18:01:12.890Z,4.62
2018-12-06T18:06:46.789Z,4.60
2018-12-06T18:09:17.763Z,4.60
2018-12-06T18:11:48.550Z,4.60
2018-12-06T18:14:19.339Z,4.57
2018-12-06T18:16:50.123Z,4.60
2018-12-06T18:19:20.996Z,4.60
2018-12-06T18:21:51.810Z,4.61
2018-12-06T18:24:22.651Z,4.62
2018-12-06T18:26:53.470Z,4.64
2018-12-06T18:29:24.308Z,4.62
2018-12-06T18:31:55.125Z,4.65
2018-12-06T18:34:25.986Z,4.67
2018-12-06T18:36:56.781Z,4.67
2018-12-06T18:39:27.553Z,4.72
2018-12-06T18:41:58.347Z,4.69
2018-12-06T18:44:29.127Z,4.71
2018-12-06T18:46:59.999Z,4.71
2018-12-06T18:49:31.094Z,4.71
2018-12-06T18:52:02.097Z,4.67
2018-12-06T18:54:32.976Z,4.65
2018-12-06T18:57:03.740Z,4.60
2018-12-06T18:59:34.542Z,4.65
2018-12-06T19:02:05.441Z,4.70
2018-12-06T19:04:36.283Z,4.68
2018-12-06T19:07:07.044Z,4.73
2018-12-06T19:09:37.928Z,4.73
2018-12-06T19:12:08.749Z,4.74
2018-12-06T19:14:39.602Z,4.77
2018-12-06T19:17:10.392Z,4.79
2018-12-06T19:19:41.293Z,4.77
2018-12-06T19:22:14.310Z,4.74
2018-12-06T19:24:45.302Z,4.76
2018-12-06T19:27:16.178Z,4.73
2018-12-06T19:29:46.981Z,4.73
2018-12-06T19:32:17.795Z,4.74
2018-12-06T19:34:48.948Z,4.76
2018-12-06T19:37:19.743Z,4.75
2018-12-06T19:39:50.577Z,4.73
2018-12-06T19:42:21.416Z,4.79
2018-12-06T19:44:52.394Z,4.75
2018-12-06T19:47:30.152Z,4.68
2018-12-06T19:50:01.030Z,4.69
2018-12-06T19:52:32.728Z,4.72
2018-12-06T19:55:06.286Z,4.67
2018-12-06T19:57:37.130Z,4.67
2018-12-06T20:00:08.497Z,4.68
2018-12-06T20:02:39.733Z,4.72
2018-12-06T20:05:10.657Z,4.65
2018-12-06T20:07:41.572Z,4.76
2018-12-06T20:10:15.547Z,4.71
2018-12-06T20:12:46.321Z,4.75
2018-12-06T20:15:17.219Z,4.70
2018-12-06T20:17:48.192Z,4.75
2018-12-06T20:20:26.113Z,4.73
2018-12-06T20:22:56.968Z,4.77
2018-12-06T20:25:27.966Z,4.75
2018-12-06T20:27:58.809Z,4.72
2018-12-06T20:30:29.600Z,4.72
2018-12-06T20:33:01.378Z,4.68
2018-12-06T20:35:32.259Z,4.64
2018-12-06T20:38:03.131Z,4.68
2018-12-06T20:40:36.920Z,4.66
2018-12-06T20:43:07.747Z,4.67
2018-12-06T20:45:39.407Z,4.73
2018-12-06T20:48:10.952Z,4.65
2018-12-06T20:50:49.211Z,4.67
2018-12-06T20:53:14.670Z,4.69
2018-12-06T20:55:47.312Z,4.74
2018-12-06T20:58:18.113Z,4.73
2018-12-06T21:00:48.951Z,4.75
2018-12-06T21:03:19.739Z,4.82
2018-12-06T21:05:50.586Z,4.78
2018-12-06T21:08:23.063Z,4.77
2018-12-06T21:10:54.022Z,4.70
2018-12-06T21:13:24.970Z,4.68
2018-12-06T21:15:55.881Z,4.68
2018-12-06T21:18:26.656Z,4.77
2018-12-06T21:20:57.515Z,4.72
2018-12-06T21:23:28.341Z,4.67
2018-12-06T21:25:59.633Z,4.65
2018-12-06T21:28:30.554Z,4.64
2018-12-06T21:31:01.333Z,4.66
2018-12-06T21:33:33.061Z,4.68
2018-12-06T21:36:10.866Z,4.72
2018-12-06T21:38:41.670Z,4.71
2018-12-06T21:41:12.549Z,4.75
2018-12-06T21:43:43.340Z,4.79
2018-12-06T21:46:14.272Z,4.75
2018-12-06T21:48:45.101Z,4.69
2018-12-06T21:51:16.069Z,4.71
2018-12-06T21:53:46.886Z,4.77
2018-12-06T21:56:17.960Z,4.75
2018-12-06T21:58:48.759Z,4.72
2018-12-06T22:01:19.641Z,4.74
2018-12-06T22:03:50.470Z,4.79
2018-12-06T22:06:21.593Z,4.74
2018-12-06T22:08:52.550Z,4.72
2018-12-06T22:11:23.381Z,4.72
2018-12-06T22:13:54.212Z,4.71
2018-12-06T22:16:25.047Z,4.79
2018-12-06T22:19:02.754Z,4.75
2018-12-06T22:21:33.555Z,4.72
2018-12-06T22:24:04.462Z,4.73
2018-12-06T22:26:35.293Z,4.77
2018-12-06T22:29:06.104Z,4.77
2018-12-06T22:31:36.936Z,4.72
2018-12-06T22:34:07.705Z,4.70
2018-12-06T22:36:38.526Z,4.71
2018-12-06T22:39:09.340Z,4.68
2018-12-06T22:41:40.269Z,4.75
2018-12-06T22:44:11.046Z,4.73
2018-12-06T22:46:41.884Z,4.73
2018-12-06T22:49:12.680Z,4.76
2018-12-06T22:51:43.500Z,4.81
2018-12-06T22:54:14.333Z,4.81
2018-12-06T22:56:45.155Z,4.85
2018-12-06T22:59:15.975Z,4.81
2018-12-06T23:01:47.197Z,4.83
2018-12-06T23:04:17.937Z,4.81
2018-12-06T23:06:48.765Z,4.78
2018-12-06T23:09:19.553Z,4.79
2018-12-06T23:11:50.337Z,4.74
2018-12-06T23:14:21.210Z,4.70
2018-12-06T23:16:59.003Z,4.72
2018-12-06T23:19:29.807Z,4.72
2018-12-06T23:22:00.660Z,4.70
2018-12-06T23:24:31.468Z,4.77
2018-12-06T23:27:02.407Z,4.72
2018-12-06T23:29:33.191Z,4.71
2018-12-06T23:32:04.379Z,4.73
2018-12-06T23:34:35.343Z,4.74
2018-12-06T23:37:06.171Z,4.73
2018-12-06T23:39:36.918Z,4.73
2018-12-06T23:42:07.732Z,4.75
2018-12-06T23:44:38.514Z,4.70
2018-12-06T23:47:09.379Z,4.74
2018-12-06T23:49:40.166Z,4.80
2018-12-06T23:52:10.966Z,4.76
2018-12-06T23:54:41.748Z,4.76
2018-12-06T23:57:12.841Z,4.76
2018-12-06T23:59:43.612Z,4.84
